Time;durP1;ratioP1;P1;durP2;ratioP2;P2;SDS_P1;SDS_P2;PMS_P1;PMS_P2;Temp;Humidity;BMP_temperature;BMP_pressure;BME280_temperature;BME280_humidity;BME280_pressure;Samples;Min_cycle;Max_cycle;Signal;HPM_P1;HPM_P2
2023/03/26 00:01:07;;;;;;;2.00;1.80;;;8.30;99.90;;;;;;5073091;28;20499;-72
2023/03/26 00:03:34;;;;;;;1.80;1.70;;;8.30;99.90;;;;;;5072855;28;20451;-72
2023/03/26 00:06:14;;;;;;;1.90;1.60;;;8.30;99.90;;;;;;5073040;28;20441;-72
2023/03/26 00:08:42;;;;;;;2.73;2.53;;;8.30;99.90;;;;;;5072492;28;20774;-72
2023/03/26 00:11:09;;;;;;;5.00;2.50;;;8.30;99.90;;;;;;5072975;28;20451;-72
2023/03/26 00:13:35;;;;;;;3.27;2.13;;;8.30;99.90;;;;;;5072524;28;20416;-73
2023/03/26 00:16:02;;;;;;;2.47;2.27;;;8.30;99.90;;;;;;5072722;28;20420;-72
2023/03/26 00:18:33;;;;;;;2.97;2.17;;;8.20;99.90;;;;;;5069252;28;20917;-71
2023/03/26 00:21:04;;;;;;;3.30;2.27;;;8.20;99.90;;;;;;5072846;28;20460;-72
2023/03/26 00:23:31;;;;;;;7.87;2.87;;;8.20;99.90;;;;;;5072747;28;20414;-72
2023/03/26 00:25:57;;;;;;;3.70;2.30;;;8.20;99.90;;;;;;5054620;28;20425;-73
2023/03/26 00:28:25;;;;;;;6.30;3.20;;;8.20;99.90;;;;;;5072260;28;20414;-72
2023/03/26 00:31:00;;;;;;;3.23;2.43;;;8.30;99.90;;;;;;5072691;28;20817;-72
2023/03/26 00:33:26;;;;;;;4.60;3.20;;;8.30;99.90;;;;;;5050352;28;20471;-73
2023/03/26 00:35:53;;;;;;;2.57;1.50;;;8.30;99.90;;;;;;5072531;28;20516;-72
2023/03/26 00:38:21;;;;;;;3.10;1.80;;;8.30;99.90;;;;;;5054748;28;20782;-72
2023/03/26 00:40:49;;;;;;;3.43;1.50;;;8.30;99.90;;;;;;5072359;28;20469;-72
2023/03/26 00:43:19;;;;;;;3.00;1.47;;;8.30;99.90;;;;;;5072653;28;20783;-72
2023/03/26 00:45:52;;;;;;;1.93;1.40;;;8.30;99.90;;;;;;5068419;28;20432;-73
2023/03/26 00:48:19;;;;;;;3.67;1.97;;;8.30;99.90;;;;;;5072198;28;20409;-73
2023/03/26 00:50:46;;;;;;;3.33;1.77;;;8.30;99.90;;;;;;5069583;28;20457;-73
2023/03/26 00:53:13;;;;;;;1.67;1.57;;;8.30;99.90;;;;;;5073737;28;20430;-73
2023/03/26 00:55:43;;;;;;;5.73;1.77;;;8.30;99.90;;;;;;5073054;28;20855;-73
2023/03/26 00:58:10;;;;;;;2.73;1.53;;;8.30;99.90;;;;;;5060270;28;20495;-72
2023/03/26 01:00:49;;;;;;;4.27;1.50;;;8.20;99.90;;;;;;5072933;28;21157;-72
2023/03/26 01:03:17;;;;;;;2.47;1.17;;;8.20;99.90;;;;;;5073157;28;20407;-72
2023/03/26 01:05:47;;;;;;;1.50;1.40;;;8.20;99.90;;;;;;5073027;28;20479;-72
2023/03/26 01:08:29;;;;;;;1.30;1.20;;;8.20;99.90;;;;;;5072345;28;20417;-73
2023/03/26 01:11:01;;;;;;;1.50;1.40;;;8.30;99.90;;;;;;5048870;28;20513;-73
2023/03/26 01:13:31;;;;;;;1.70;1.60;;;8.30;99.90;;;;;;5071924;28;20415;-72
2023/03/26 01:15:57;;;;;;;2.43;1.20;;;8.30;99.90;;;;;;5069658;28;20859;-71
2023/03/26 01:18:32;;;;;;;2.10;1.57;;;8.20;99.90;;;;;;5075599;28;20411;-72
2023/03/26 01:21:03;;;;;;;1.40;1.10;;;8.30;99.90;;;;;;5074669;28;20507;-73
2023/03/26 01:23:45;;;;;;;1.87;1.30;;;8.30;99.90;;;;;;5071466;28;20414;-72
2023/03/26 01:26:52;;;;;;;1.60;1.50;;;8.20;99.90;;;;;;5075656;28;20436;-72
2023/03/26 01:29:45;;;;;;;5.03;1.40;;;8.20;99.90;;;;;;5070749;28;20443;-72
2023/03/26 01:32:46;;;;;;;2.33;1.50;;;8.10;99.90;;;;;;5067439;28;20426;-72
2023/03/26 01:35:24;;;;;;;2.17;1.70;;;8.00;99.90;;;;;;5067205;28;20422;-72
2023/03/26 01:38:09;;;;;;;1.33;1.20;;;8.00;99.90;;;;;;5067207;28;20443;-72
2023/03/26 01:40:45;;;;;;;1.87;1.77;;;7.90;99.90;;;;;;5071044;28;20540;-72
2023/03/26 01:43:14;;;;;;;2.40;1.27;;;8.00;99.90;;;;;;5071297;28;20410;-73
2023/03/26 01:45:42;;;;;;;2.27;1.83;;;7.90;99.90;;;;;;5071019;28;20467;-72
2023/03/26 01:48:08;;;;;;;2.23;2.00;;;7.90;99.90;;;;;;5071345;28;20445;-72
2023/03/26 01:50:34;;;;;;;2.63;2.43;;;7.90;99.90;;;;;;5068177;28;20459;-72
2023/03/26 01:53:00;;;;;;;4.30;2.17;;;7.90;99.90;;;;;;5070525;28;20410;-72
2023/03/26 01:55:40;;;;;;;2.30;1.60;;;7.90;99.90;;;;;;5053414;28;20184;-72
2023/03/26 01:58:33;;;;;;;4.20;1.73;;;7.90;99.90;;;;;;5071165;28;20495;-72
2023/03/26 02:01:02;;;;;;;2.00;1.10;;;7.90;99.90;;;;;;5067929;28;20545;-72
2023/03/26 02:03:37;;;;;;;2.70;1.80;;;7.80;99.90;;;;;;5075066;28;20481;-73
2023/03/26 02:06:24;;;;;;;7.20;1.87;;;7.80;99.90;;;;;;5074952;28;20430;-72
2023/03/26 02:08:57;;;;;;;1.43;1.33;;;7.90;99.90;;;;;;5068733;28;20476;-73
2023/03/26 02:11:22;;;;;;;1.60;1.30;;;7.90;99.90;;;;;;5075458;28;20432;-72
2023/03/26 02:13:49;;;;;;;2.17;1.50;;;7.90;99.90;;;;;;5057249;28;20425;-72
2023/03/26 02:16:18;;;;;;;1.50;1.30;;;7.90;99.90;;;;;;5075134;28;20556;-72
2023/03/26 02:18:45;;;;;;;1.60;1.50;;;7.80;99.90;;;;;;5075368;28;20639;-73
2023/03/26 02:21:19;;;;;;;8.43;1.40;;;7.80;99.90;;;;;;5057243;28;20920;-73
2023/03/26 02:23:46;;;;;;;1.60;1.20;;;7.80;99.90;;;;;;5075353;28;20464;-73
2023/03/26 02:26:14;;;;;;;2.20;1.40;;;7.80;99.90;;;;;;5075026;28;20417;-72
2023/03/26 02:28:40;;;;;;;3.63;2.20;;;7.70;99.90;;;;;;5070022;28;20644;-72
2023/03/26 02:31:09;;;;;;;2.60;1.77;;;7.60;99.90;;;;;;5074993;28;20979;-72
2023/03/26 02:33:35;;;;;;;2.80;1.70;;;7.60;99.90;;;;;;5074515;28;20423;-73
2023/03/26 02:36:01;;;;;;;2.70;1.87;;;7.60;99.90;;;;;;5069367;28;20931;-72
2023/03/26 02:38:34;;;;;;;2.23;2.13;;;7.50;99.90;;;;;;5072834;28;20418;-72
2023/03/26 02:41:04;;;;;;;2.17;1.57;;;7.40;99.90;;;;;;5073727;28;20491;-73
2023/03/26 02:43:29;;;;;;;3.73;1.93;;;7.40;99.90;;;;;;5075101;28;20412;-72
2023/03/26 02:45:55;;;;;;;1.50;1.40;;;7.40;99.90;;;;;;5072741;28;20490;-72
2023/03/26 02:48:21;;;;;;;5.03;1.63;;;7.30;99.90;;;;;;5074839;28;20265;-72
2023/03/26 02:50:53;;;;;;;1.93;1.73;;;7.30;99.90;;;;;;5074566;28;20925;-72
2023/03/26 02:53:20;;;;;;;3.30;1.87;;;7.30;99.90;;;;;;5074671;28;20425;-72
2023/03/26 02:55:46;;;;;;;1.70;1.60;;;7.40;99.90;;;;;;5070869;28;20448;-72
2023/03/26 02:58:16;;;;;;;2.77;1.80;;;7.40;99.90;;;;;;5074516;28;20773;-72
2023/03/26 03:00:45;;;;;;;2.37;2.10;;;7.30;99.90;;;;;;5060529;28;20456;-72
2023/03/26 03:03:12;;;;;;;2.90;2.43;;;7.30;99.90;;;;;;5074632;28;20416;-73
2023/03/26 03:05:41;;;;;;;2.63;2.37;;;7.40;99.90;;;;;;5079274;28;20399;-72
2023/03/26 03:08:08;;;;;;;3.43;2.50;;;7.50;99.90;;;;;;5081685;28;20437;-73
2023/03/26 03:10:33;;;;;;;2.40;2.20;;;7.50;99.90;;;;;;5082201;28;20488;-73
2023/03/26 03:12:59;;;;;;;2.33;2.10;;;7.50;99.90;;;;;;5079079;28;20424;-72
2023/03/26 03:15:26;;;;;;;1.90;1.47;;;7.60;99.90;;;;;;5082813;28;20183;-72
2023/03/26 03:17:52;;;;;;;3.03;2.37;;;7.60;99.90;;;;;;5083198;28;20415;-73
2023/03/26 03:20:17;;;;;;;4.43;2.30;;;7.60;99.90;;;;;;5082086;28;20469;-73
2023/03/26 03:22:43;;;;;;;1.80;1.70;;;7.60;99.90;;;;;;5078771;28;20189;-72
2023/03/26 03:25:13;;;;;;;1.87;1.77;;;7.60;99.90;;;;;;5074327;28;20178;-73
2023/03/26 03:27:43;;;;;;;4.67;2.53;;;7.60;99.90;;;;;;5074217;28;20166;-72
2023/03/26 03:30:11;;;;;;;1.33;1.23;;;7.60;99.90;;;;;;5073599;28;20440;-72
2023/03/26 03:32:37;;;;;;;2.93;2.23;;;7.70;99.90;;;;;;5074119;28;20422;-72
2023/03/26 03:35:03;;;;;;;2.03;1.73;;;7.70;99.90;;;;;;5073927;28;20417;-74
2023/03/26 03:37:29;;;;;;;3.63;1.97;;;7.70;99.90;;;;;;5068685;28;20988;-73
2023/03/26 03:39:55;;;;;;;5.23;2.20;;;7.70;99.90;;;;;;5071093;28;20551;-72
2023/03/26 03:42:21;;;;;;;3.70;2.23;;;7.70;99.90;;;;;;5074129;28;20194;-73
2023/03/26 03:44:46;;;;;;;2.30;1.90;;;7.80;99.90;;;;;;5052421;28;20226;-73
2023/03/26 03:47:12;;;;;;;3.67;2.20;;;7.80;99.90;;;;;;5074172;28;20176;-72
2023/03/26 03:49:39;;;;;;;6.20;2.73;;;7.80;99.90;;;;;;5073855;28;20609;-72
2023/03/26 03:52:05;;;;;;;5.47;2.50;;;7.80;99.90;;;;;;5074222;28;20979;-73
2023/03/26 03:54:31;;;;;;;2.40;2.00;;;7.80;99.90;;;;;;5073880;28;20417;-73
2023/03/26 03:56:57;;;;;;;6.60;2.20;;;7.80;99.90;;;;;;5074490;28;20832;-73
2023/03/26 03:59:22;;;;;;;2.70;1.60;;;7.80;99.90;;;;;;5068674;28;20533;-72
2023/03/26 04:01:49;;;;;;;2.40;2.03;;;7.80;99.90;;;;;;5072632;28;20166;-72
2023/03/26 04:04:15;;;;;;;2.17;1.70;;;7.80;99.90;;;;;;5073971;28;20674;-73
2023/03/26 04:06:41;;;;;;;4.93;1.83;;;7.70;99.90;;;;;;5071633;28;20485;-72
2023/03/26 04:09:07;;;;;;;6.77;2.27;;;7.80;99.90;;;;;;5073770;28;20435;-72
2023/03/26 04:11:33;;;;;;;2.47;2.27;;;7.70;99.90;;;;;;5067510;28;20225;-71
2023/03/26 04:13:59;;;;;;;1.60;1.50;;;7.80;99.90;;;;;;5073515;28;20415;-72
2023/03/26 04:16:24;;;;;;;1.93;1.80;;;7.80;99.90;;;;;;5067513;28;20210;-73
2023/03/26 04:18:50;;;;;;;4.83;2.07;;;7.80;99.90;;;;;;5073121;28;20230;-73
2023/03/26 04:21:15;;;;;;;2.50;2.23;;;7.80;99.90;;;;;;5074961;28;20248;-73
2023/03/26 04:23:41;;;;;;;6.07;2.40;;;7.80;99.90;;;;;;5075008;28;20164;-72
2023/03/26 04:26:12;;;;;;;3.97;2.00;;;7.80;99.90;;;;;;5057350;28;20176;-73
2023/03/26 04:28:47;;;;;;;2.37;2.13;;;7.80;99.90;;;;;;5071832;28;20165;-73
2023/03/26 04:31:17;;;;;;;3.10;2.53;;;7.80;99.90;;;;;;5077370;28;20468;-73
2023/03/26 04:33:49;;;;;;;5.37;2.80;;;7.80;99.90;;;;;;5076995;28;20929;-72
2023/03/26 04:36:15;;;;;;;1.50;1.40;;;7.80;99.90;;;;;;5073415;28;20401;-71
2023/03/26 04:38:43;;;;;;;4.57;1.70;;;7.80;99.90;;;;;;5071692;28;20441;-72
2023/03/26 04:41:11;;;;;;;5.20;1.77;;;7.80;99.90;;;;;;5066830;28;20602;-71
2023/03/26 04:43:41;;;;;;;3.73;2.27;;;7.80;99.90;;;;;;5070744;28;20905;-71
2023/03/26 04:46:09;;;;;;;3.37;1.90;;;7.80;99.90;;;;;;5071588;28;20417;-72
2023/03/26 04:48:35;;;;;;;1.80;1.40;;;7.70;99.90;;;;;;5071563;28;20442;-73
2023/03/26 04:51:01;;;;;;;3.53;2.13;;;7.80;99.90;;;;;;5067926;28;20471;-72
2023/03/26 04:53:27;;;;;;;1.47;1.17;;;7.70;99.90;;;;;;5053270;28;20915;-72
2023/03/26 04:56:00;;;;;;;3.83;1.83;;;7.70;99.90;;;;;;5071019;28;20403;-71
2023/03/26 04:58:31;;;;;;;1.73;1.47;;;7.70;99.90;;;;;;5072128;28;20609;-74
2023/03/26 05:00:59;;;;;;;3.00;1.70;;;7.60;99.90;;;;;;5054264;28;20544;-73
2023/03/26 05:03:30;;;;;;;4.73;1.90;;;7.60;99.90;;;;;;5071641;28;20506;-73
2023/03/26 05:06:00;;;;;;;2.00;1.70;;;7.60;99.90;;;;;;5072118;28;20408;-73
2023/03/26 05:08:27;;;;;;;3.63;1.70;;;7.60;99.90;;;;;;5072071;28;20428;-73
2023/03/26 05:10:55;;;;;;;2.70;1.70;;;7.60;99.90;;;;;;5072698;28;20435;-73
2023/03/26 05:13:21;;;;;;;2.43;1.80;;;7.60;99.90;;;;;;5070534;28;20914;-72
2023/03/26 05:15:47;;;;;;;3.80;1.70;;;7.60;99.90;;;;;;5072714;28;20421;-73
2023/03/26 05:18:12;;;;;;;5.40;1.87;;;7.70;99.90;;;;;;5073326;28;20946;-73
2023/03/26 05:20:38;;;;;;;1.67;1.57;;;7.70;99.90;;;;;;5077623;28;20213;-72
2023/03/26 05:23:03;;;;;;;2.73;1.20;;;7.70;99.90;;;;;;5077826;28;20176;-73
2023/03/26 05:25:29;;;;;;;3.50;1.80;;;7.70;99.90;;;;;;5077505;28;20718;-72
2023/03/26 05:27:55;;;;;;;1.73;1.40;;;7.70;99.90;;;;;;5072958;28;20186;-73
2023/03/26 05:30:21;;;;;;;1.60;1.50;;;7.70;99.90;;;;;;5073944;28;21008;-73
2023/03/26 05:32:47;;;;;;;2.90;1.37;;;7.70;99.90;;;;;;5072247;28;20170;-73
2023/03/26 05:35:15;;;;;;;1.67;1.57;;;7.70;99.90;;;;;;5071946;28;20616;-74
2023/03/26 05:37:43;;;;;;;5.23;1.53;;;7.70;99.90;;;;;;5072501;28;20409;-73
2023/03/26 05:40:13;;;;;;;6.43;2.30;;;7.70;99.90;;;;;;5072748;28;21029;-73
2023/03/26 05:42:39;;;;;;;2.27;1.77;;;7.80;99.90;;;;;;5072797;28;20398;-72
2023/03/26 05:45:07;;;;;;;6.23;1.73;;;7.90;99.90;;;;;;5073016;28;20411;-72
2023/03/26 05:47:33;;;;;;;2.73;1.47;;;7.90;99.90;;;;;;5072522;28;20434;-73
2023/03/26 05:49:58;;;;;;;1.90;1.63;;;7.80;99.90;;;;;;5072521;28;20453;-72
2023/03/26 05:52:24;;;;;;;4.23;2.60;;;7.70;99.90;;;;;;5072461;28;20377;-73
2023/03/26 05:54:50;;;;;;;2.63;1.93;;;7.80;99.90;;;;;;5069088;28;20789;-72
2023/03/26 05:57:17;;;;;;;3.30;1.70;;;7.80;99.90;;;;;;5072231;28;20429;-72
2023/03/26 05:59:43;;;;;;;2.43;1.83;;;7.80;99.90;;;;;;5071139;28;20202;-72
2023/03/26 06:02:09;;;;;;;4.33;2.20;;;7.80;99.90;;;;;;5071411;28;20413;-73
2023/03/26 06:04:39;;;;;;;3.00;2.03;;;7.80;99.90;;;;;;5071621;28;20289;-73
2023/03/26 06:07:08;;;;;;;6.00;2.20;;;7.80;99.90;;;;;;5069319;28;20493;-73
2023/03/26 06:09:37;;;;;;;2.20;1.77;;;7.70;99.90;;;;;;5072425;28;20410;-74
2023/03/26 06:12:08;;;;;;;2.20;1.67;;;7.60;99.90;;;;;;5071784;28;20414;-72
2023/03/26 06:14:34;;;;;;;2.00;1.80;;;7.60;99.90;;;;;;5069634;28;20410;-72
2023/03/26 06:16:59;;;;;;;1.83;1.73;;;7.60;99.90;;;;;;5071062;28;20425;-72
2023/03/26 06:19:25;;;;;;;2.70;1.47;;;7.60;99.90;;;;;;5050873;28;20428;-73
2023/03/26 06:21:51;;;;;;;2.40;1.40;;;7.70;99.90;;;;;;5070400;28;20539;-72
2023/03/26 06:24:18;;;;;;;2.30;1.63;;;7.70;99.90;;;;;;5072180;28;20244;-72
2023/03/26 06:26:45;;;;;;;6.03;1.63;;;7.70;99.90;;;;;;5071513;28;20164;-72
2023/03/26 06:29:12;;;;;;;2.77;1.63;;;7.70;99.90;;;;;;5067749;28;20427;-72
2023/03/26 06:31:39;;;;;;;7.63;2.07;;;7.80;99.90;;;;;;5071041;28;20454;-73
2023/03/26 06:34:04;;;;;;;1.53;1.43;;;7.80;99.90;;;;;;5067254;28;20477;-73
2023/03/26 06:36:30;;;;;;;2.97;1.67;;;7.80;99.90;;;;;;5071321;28;20406;-73
2023/03/26 06:38:56;;;;;;;1.97;1.27;;;7.90;99.90;;;;;;5071729;28;20197;-73
2023/03/26 06:41:22;;;;;;;1.40;1.30;;;7.90;99.90;;;;;;5071708;28;20222;-73
2023/03/26 06:43:48;;;;;;;3.03;1.47;;;7.90;99.90;;;;;;5072183;28;20201;-72
2023/03/26 06:46:14;;;;;;;3.10;1.40;;;7.90;99.90;;;;;;5055161;28;20418;-73
2023/03/26 06:48:41;;;;;;;1.53;1.40;;;7.90;99.90;;;;;;5075532;28;20172;-73
2023/03/26 06:51:07;;;;;;;2.30;1.40;;;7.90;99.90;;;;;;5074724;28;20514;-73
2023/03/26 06:53:33;;;;;;;1.40;1.30;;;8.00;99.90;;;;;;5075608;28;20931;-73
2023/03/26 06:55:59;;;;;;;8.17;1.40;;;7.90;99.90;;;;;;5057949;28;20418;-74
2023/03/26 06:58:24;;;;;;;2.40;1.27;;;7.90;99.90;;;;;;5057275;28;20172;-73
2023/03/26 07:00:54;;;;;;;2.87;1.63;;;8.00;99.90;;;;;;5057287;28;20201;-72
2023/03/26 07:03:20;;;;;;;1.27;1.10;;;8.30;99.90;;;;;;5075465;28;20176;-74
2023/03/26 07:05:46;;;;;;;1.40;1.30;;;8.50;99.90;;;;;;5053818;28;20439;-72
2023/03/26 07:08:11;;;;;;;2.03;1.30;;;8.60;99.90;;;;;;5075357;28;20780;-74
2023/03/26 07:10:37;;;;;;;1.57;1.13;;;8.70;99.90;;;;;;5070755;28;20246;-73
2023/03/26 07:13:03;;;;;;;2.20;1.00;;;8.90;99.90;;;;;;5075485;28;20189;-72
2023/03/26 07:15:28;;;;;;;1.53;0.90;;;8.80;99.90;;;;;;5070358;28;20221;-73
2023/03/26 07:17:55;;;;;;;5.13;1.30;;;9.20;99.90;;;;;;5077089;28;20181;-73
2023/03/26 07:20:20;;;;;;;2.80;1.20;;;9.00;99.90;;;;;;5068402;28;20210;-73
2023/03/26 07:22:46;;;;;;;2.10;1.10;;;9.00;99.90;;;;;;5077362;28;20423;-73
2023/03/26 07:25:13;;;;;;;2.80;1.27;;;9.10;99.90;;;;;;5077581;28;20431;-73
2023/03/26 07:28:03;;;;;;;1.83;1.07;;;9.70;99.90;;;;;;5078423;28;20412;-73
2023/03/26 07:31:08;;;;;;;3.07;1.37;;;9.80;99.90;;;;;;5078251;28;20829;-71
2023/03/26 07:33:48;;;;;;;2.13;1.30;;;10.00;99.90;;;;;;5076738;28;20400;-71
2023/03/26 07:36:34;;;;;;;3.47;2.00;;;9.90;99.90;;;;;;5075458;28;20437;-73
2023/03/26 07:39:06;;;;;;;2.27;1.40;;;9.40;99.90;;;;;;5071183;28;20785;-72
2023/03/26 07:41:45;;;;;;;1.67;1.30;;;9.40;99.90;;;;;;5075545;28;20456;-73
2023/03/26 07:44:35;;;;;;;3.20;1.67;;;9.20;99.90;;;;;;5070557;28;20789;-72
2023/03/26 07:47:09;;;;;;;1.40;1.20;;;9.20;99.90;;;;;;5068989;28;20721;-73
2023/03/26 07:49:36;;;;;;;3.20;1.40;;;9.10;99.90;;;;;;5074301;28;20411;-73
2023/03/26 07:52:02;;;;;;;3.80;1.50;;;9.30;99.90;;;;;;5074787;28;20416;-74
2023/03/26 07:54:28;;;;;;;1.50;1.27;;;9.40;99.90;;;;;;5074741;28;20461;-72
2023/03/26 07:56:53;;;;;;;1.67;1.37;;;9.10;99.90;;;;;;5075139;28;20887;-72
2023/03/26 07:59:39;;;;;;;4.50;1.30;;;8.70;99.90;;;;;;5055912;28;20323;-71
2023/03/26 08:02:42;;;;;;;3.47;3.00;;;8.60;99.90;;;;;;5069736;28;20197;-73
2023/03/26 08:05:21;;;;;;;5.63;1.93;;;8.80;99.90;;;;;;5072267;28;20815;-73
2023/03/26 08:08:20;;;;;;;1.83;1.43;;;8.90;99.90;;;;;;5068883;28;20420;-74
2023/03/26 08:11:15;;;;;;;2.30;1.43;;;9.00;99.90;;;;;;5077768;28;20429;-72
2023/03/26 08:13:44;;;;;;;1.30;1.10;;;8.90;99.90;;;;;;5077889;28;20466;-73
2023/03/26 08:16:18;;;;;;;1.43;1.10;;;8.80;99.90;;;;;;5080152;28;20748;-72
2023/03/26 08:19:20;;;;;;;1.93;1.20;;;8.80;99.90;;;;;;5078329;28;20404;-74
2023/03/26 08:21:53;;;;;;;4.87;2.20;;;8.90;99.90;;;;;;5071309;28;20455;-73
2023/03/26 08:24:24;;;;;;;2.07;1.67;;;9.20;99.90;;;;;;5077631;28;20416;-72
2023/03/26 08:26:56;;;;;;;6.07;1.90;;;9.50;99.90;;;;;;5080547;28;20897;-74
2023/03/26 08:29:48;;;;;;;7.90;2.17;;;9.60;99.90;;;;;;5079682;28;20415;-73
2023/03/26 08:32:16;;;;;;;1.33;1.23;;;9.40;99.90;;;;;;5068965;28;20412;-72
2023/03/26 08:34:42;;;;;;;3.60;1.60;;;9.40;99.90;;;;;;5065964;28;20411;-72
2023/03/26 08:37:08;;;;;;;2.80;1.90;;;9.60;99.90;;;;;;5072588;28;20436;-73
2023/03/26 08:39:35;;;;;;;3.40;1.83;;;9.60;99.90;;;;;;5069108;28;20188;-72
2023/03/26 08:42:31;;;;;;;1.67;1.57;;;9.50;99.90;;;;;;5071730;28;20475;-72
2023/03/26 08:45:18;;;;;;;5.77;1.70;;;9.50;99.90;;;;;;5066888;28;20463;-72
2023/03/26 08:48:29;;;;;;;2.63;1.70;;;9.60;99.90;;;;;;5053506;28;20412;-73
2023/03/26 08:51:19;;;;;;;1.90;1.40;;;9.00;99.90;;;;;;5040439;28;20542;-73
2023/03/26 08:54:09;;;;;;;2.50;1.40;;;8.80;99.90;;;;;;5065263;28;20458;-73
2023/03/26 08:57:05;;;;;;;6.30;1.83;;;8.90;99.90;;;;;;5072196;28;20497;-72
2023/03/26 08:59:56;;;;;;;3.00;2.10;;;8.60;99.90;;;;;;5072717;28;20450;-73
2023/03/26 09:02:45;;;;;;;2.03;1.60;;;8.80;99.90;;;;;;5054761;28;20430;-72
2023/03/26 09:05:25;;;;;;;3.67;1.50;;;8.80;99.90;;;;;;5073045;28;20694;-72
2023/03/26 09:08:05;;;;;;;2.87;2.67;;;8.90;99.90;;;;;;5065856;28;20438;-72
2023/03/26 09:11:04;;;;;;;2.17;1.73;;;8.80;99.90;;;;;;5070615;28;20438;-72
2023/03/26 09:13:41;;;;;;;3.13;1.67;;;8.80;99.90;;;;;;5072699;28;20411;-72
2023/03/26 09:16:25;;;;;;;2.37;1.87;;;8.90;99.90;;;;;;5073071;28;20714;-73
2023/03/26 09:19:10;;;;;;;5.40;1.97;;;9.00;99.90;;;;;;5067083;28;20411;-73
2023/03/26 09:21:47;;;;;;;2.33;1.43;;;9.00;99.90;;;;;;5069465;28;20461;-73
2023/03/26 09:24:45;;;;;;;4.53;1.90;;;9.10;99.90;;;;;;5068771;28;20748;-72
2023/03/26 09:27:19;;;;;;;6.33;2.17;;;8.80;99.90;;;;;;5034929;28;20405;-73
2023/03/26 09:30:11;;;;;;;2.40;1.80;;;8.60;99.90;;;;;;5064766;28;20786;-74
2023/03/26 09:33:02;;;;;;;3.77;1.40;;;8.40;99.90;;;;;;5048558;28;20933;-72
2023/03/26 09:35:53;;;;;;;2.90;1.53;;;8.00;99.90;;;;;;5071892;28;20442;-73
2023/03/26 09:38:41;;;;;;;3.97;2.03;;;7.90;99.90;;;;;;5071909;28;20416;-73
2023/03/26 09:41:10;;;;;;;2.23;1.97;;;8.00;99.90;;;;;;5071928;28;20541;-73
2023/03/26 09:43:47;;;;;;;2.80;1.57;;;7.90;99.90;;;;;;5072110;28;20415;-74
2023/03/26 09:46:24;;;;;;;1.97;1.40;;;7.70;99.90;;;;;;5069775;28;20413;-73
2023/03/26 09:49:01;;;;;;;1.30;1.20;;;7.70;99.90;;;;;;5065048;28;20404;-73
2023/03/26 09:51:30;;;;;;;1.50;1.40;;;7.60;99.90;;;;;;5069568;28;20943;-73
2023/03/26 09:54:22;;;;;;;2.77;1.80;;;7.50;99.90;;;;;;5071072;28;20412;-74
2023/03/26 09:57:17;;;;;;;1.47;1.23;;;7.70;99.90;;;;;;5064614;28;20421;-73
2023/03/26 10:00:20;;;;;;;2.07;1.33;;;7.60;99.90;;;;;;5016768;28;20510;-73
2023/03/26 10:03:20;;;;;;;2.83;1.97;;;7.60;99.90;;;;;;5062587;28;20431;-72
2023/03/26 10:06:07;;;;;;;3.53;1.67;;;7.70;99.90;;;;;;5064406;28;20802;-73
2023/03/26 10:09:12;;;;;;;3.70;1.70;;;7.80;99.90;;;;;;5054132;28;20410;-73
2023/03/26 10:12:09;;;;;;;6.70;1.77;;;7.80;99.90;;;;;;5065751;28;20430;-73
2023/03/26 10:14:59;;;;;;;5.37;1.87;;;7.80;99.90;;;;;;5069455;28;20778;-73
2023/03/26 10:17:51;;;;;;;2.07;1.80;;;7.70;99.90;;;;;;5069956;28;21006;-73
2023/03/26 10:20:30;;;;;;;1.53;1.43;;;7.90;99.90;;;;;;5030389;28;20493;-73
2023/03/26 10:23:17;;;;;;;2.33;2.13;;;8.00;99.90;;;;;;5077730;28;20713;-73
2023/03/26 10:26:03;;;;;;;3.77;1.50;;;8.00;99.90;;;;;;5073289;28;20428;-73
2023/03/26 10:29:03;;;;;;;7.10;1.60;;;8.10;99.90;;;;;;5076045;28;20868;-73
2023/03/26 10:32:10;;;;;;;2.63;1.50;;;8.40;99.90;;;;;;5054093;28;20449;-74
2023/03/26 10:34:56;;;;;;;4.10;1.63;;;8.40;99.90;;;;;;4996820;28;21108;-75
2023/03/26 10:37:59;;;;;;;4.13;1.70;;;8.50;99.90;;;;;;5074543;28;20477;-74
2023/03/26 10:40:57;;;;;;;2.63;2.03;;;8.10;99.90;;;;;;5072632;28;20468;-72
2023/03/26 10:43:50;;;;;;;2.60;1.87;;;7.90;99.90;;;;;;5079619;28;20448;-74
2023/03/26 10:46:30;;;;;;;8.63;3.27;;;7.90;99.90;;;;;;5072530;28;20849;-73
2023/03/26 10:49:15;;;;;;;3.80;1.40;;;8.10;99.90;;;;;;5075044;28;20439;-73
2023/03/26 10:52:03;;;;;;;2.00;1.83;;;8.10;99.90;;;;;;5074383;28;20531;-72
2023/03/26 10:54:29;;;;;;;1.70;1.40;;;8.00;99.90;;;;;;5074388;28;20425;-73
2023/03/26 10:56:55;;;;;;;4.37;2.10;;;8.10;99.90;;;;;;5074161;28;20414;-72
2023/03/26 10:59:24;;;;;;;4.53;1.40;;;7.80;99.90;;;;;;5070485;28;20465;-74
2023/03/26 11:02:03;;;;;;;4.83;1.57;;;8.00;99.90;;;;;;5074837;28;20778;-72
2023/03/26 11:04:40;;;;;;;2.30;1.77;;;7.90;99.90;;;;;;5074619;28;20879;-73
2023/03/26 11:07:45;;;;;;;4.70;2.30;;;8.20;99.90;;;;;;5075216;28;20439;-73
2023/03/26 11:10:22;;;;;;;6.60;2.40;;;8.70;99.90;;;;;;5073448;28;20430;-72
2023/03/26 11:12:57;;;;;;;4.03;2.07;;;9.00;99.90;;;;;;5067638;28;20426;-73
2023/03/26 11:15:44;;;;;;;3.53;1.90;;;9.30;99.90;;;;;;5074771;28;20405;-72
2023/03/26 11:18:42;;;;;;;4.80;2.10;;;9.60;99.90;;;;;;5073895;28;20401;-73
2023/03/26 11:21:12;;;;;;;5.00;2.50;;;9.70;99.90;;;;;;5071137;28;20458;-72
2023/03/26 11:24:00;;;;;;;6.20;2.80;;;9.50;99.90;;;;;;5074874;28;20722;-70
2023/03/26 11:26:39;;;;;;;4.63;3.00;;;9.60;99.90;;;;;;5073288;28;20397;-70
2023/03/26 11:29:22;;;;;;;1.63;1.53;;;9.80;99.90;;;;;;5073428;28;20706;-72
2023/03/26 11:31:59;;;;;;;1.83;1.53;;;10.20;99.90;;;;;;5072297;28;20419;-72
2023/03/26 11:34:40;;;;;;;4.90;2.20;;;10.30;99.90;;;;;;5071069;28;20408;-72
2023/03/26 11:37:15;;;;;;;5.30;2.23;;;10.60;99.90;;;;;;5075011;28;20496;-71
2023/03/26 11:39:54;;;;;;;1.83;1.60;;;10.50;99.90;;;;;;5075837;28;20451;-72
2023/03/26 11:42:23;;;;;;;1.90;1.80;;;10.40;99.90;;;;;;5058363;28;20808;-73
2023/03/26 11:45:14;;;;;;;4.20;1.50;;;10.50;99.90;;;;;;5075553;28;20492;-71
2023/03/26 11:47:44;;;;;;;3.93;2.30;;;10.50;99.90;;;;;;5074390;28;20543;-72
2023/03/26 11:50:19;;;;;;;3.07;1.87;;;10.20;99.90;;;;;;5056239;28;20456;-72
2023/03/26 11:52:45;;;;;;;2.77;1.37;;;10.20;99.90;;;;;;5074780;28;20457;-71
2023/03/26 11:55:11;;;;;;;3.30;1.90;;;10.00;99.90;;;;;;5075300;28;20415;-72
2023/03/26 11:57:42;;;;;;;1.77;1.47;;;10.00;99.90;;;;;;5075210;28;20417;-73
2023/03/26 12:00:16;;;;;;;5.03;2.23;;;10.00;99.90;;;;;;5079339;28;20468;-73
2023/03/26 12:02:44;;;;;;;3.73;1.80;;;10.30;99.90;;;;;;5079326;28;20491;-73
2023/03/26 12:05:30;;;;;;;3.57;2.07;;;10.80;99.90;;;;;;5078895;28;20436;-72
2023/03/26 12:07:58;;;;;;;5.87;1.93;;;11.20;99.90;;;;;;5073280;28;20483;-73
2023/03/26 12:10:36;;;;;;;5.97;2.17;;;11.40;99.90;;;;;;5074263;28;20448;-72
2023/03/26 12:13:20;;;;;;;3.47;1.87;;;10.90;99.90;;;;;;5075232;28;20408;-72
2023/03/26 12:15:46;;;;;;;1.97;1.87;;;11.00;99.90;;;;;;5067148;28;20404;-72
2023/03/26 12:18:26;;;;;;;2.63;1.60;;;11.00;99.90;;;;;;5055148;28;20942;-73
2023/03/26 12:21:05;;;;;;;2.93;2.00;;;10.70;99.90;;;;;;5050190;28;20198;-73
2023/03/26 12:23:56;;;;;;;2.10;1.90;;;10.40;99.90;;;;;;5073911;28;20453;-71
2023/03/26 12:26:47;;;;;;;2.10;1.90;;;10.50;99.90;;;;;;5056475;28;20413;-73
2023/03/26 12:29:16;;;;;;;2.47;2.23;;;10.70;99.90;;;;;;5075258;28;20918;-72
2023/03/26 12:31:52;;;;;;;4.20;2.30;;;11.10;99.90;;;;;;5054372;28;20417;-73
2023/03/26 12:34:19;;;;;;;3.10;2.47;;;11.40;99.90;;;;;;5075012;28;20945;-72
2023/03/26 12:36:54;;;;;;;3.30;2.20;;;11.50;99.90;;;;;;5066644;28;20742;-72
2023/03/26 12:39:30;;;;;;;1.83;1.60;;;11.50;99.90;;;;;;5074679;28;20448;-71
2023/03/26 12:41:58;;;;;;;3.40;2.03;;;11.40;99.90;;;;;;5074174;28;20404;-72
2023/03/26 12:44:35;;;;;;;7.07;2.57;;;11.40;99.90;;;;;;5073291;28;20462;-72
2023/03/26 12:47:16;;;;;;;1.70;1.60;;;11.50;99.90;;;;;;5073515;28;20411;-73
2023/03/26 12:49:43;;;;;;;4.60;1.70;;;11.70;99.90;;;;;;5072742;28;20507;-74
2023/03/26 12:52:28;;;;;;;2.53;1.87;;;12.10;99.90;;;;;;5052836;28;20404;-74
2023/03/26 12:55:16;;;;;;;7.30;1.70;;;12.40;99.90;;;;;;5073294;28;20392;-74
2023/03/26 12:58:02;;;;;;;2.90;1.80;;;12.10;99.90;;;;;;5072249;28;20920;-72
2023/03/26 13:00:47;;;;;;;3.83;2.13;;;12.00;99.90;;;;;;5070888;28;20505;-73
2023/03/26 13:03:29;;;;;;;3.73;1.63;;;11.80;99.90;;;;;;5073324;28;20470;-73
2023/03/26 13:06:15;;;;;;;5.27;2.60;;;11.80;99.90;;;;;;5067241;28;20453;-72
2023/03/26 13:09:07;;;;;;;4.60;2.30;;;11.40;99.90;;;;;;5075121;28;20423;-73
2023/03/26 13:11:50;;;;;;;4.03;2.00;;;11.90;99.90;;;;;;5074490;28;20535;-72
2023/03/26 13:14:40;;;;;;;3.47;2.10;;;12.20;99.90;;;;;;5057371;28;20409;-74
2023/03/26 13:17:22;;;;;;;2.60;1.67;;;12.50;99.90;;;;;;5071067;28;20416;-73
2023/03/26 13:20:11;;;;;;;1.47;1.37;;;12.70;99.90;;;;;;5070644;28;20464;-73
2023/03/26 13:22:48;;;;;;;1.40;1.10;;;11.90;99.90;;;;;;5065820;28;20421;-73
2023/03/26 13:25:41;;;;;;;3.50;1.60;;;12.00;99.90;;;;;;5075575;28;20859;-72
2023/03/26 13:28:10;;;;;;;3.90;1.77;;;12.40;99.90;;;;;;5052436;28;20417;-72
2023/03/26 13:30:45;;;;;;;3.10;1.60;;;12.30;99.90;;;;;;5076117;28;20424;-72
2023/03/26 13:33:23;;;;;;;2.20;1.10;;;11.90;99.90;;;;;;5076807;28;20416;-73